Time;durP1;ratioP1;P1;durP2;ratioP2;P2;SDS_P1;SDS_P2;PMS_P1;PMS_P2;Temp;Humidity;BMP_temperature;BMP_pressure;BME280_temperature;BME280_humidity;BME280_pressure;Samples;Min_cycle;Max_cycle;Signal;HPM_P1;HPM_P2
2022/03/25 10:27:04;;;;;;;52.80;12.10;;;;;;;14.32;26.91;100233.63;1851081;77;23020;-41
2022/03/25 10:29:30;;;;;;;23.05;11.53;;;;;;;14.09;26.98;100242.83;1848634;77;21625;-41
2022/03/25 10:32:16;;;;;;;35.08;12.18;;;;;;;14.13;27.20;100234.62;1853775;77;20923;-43
2022/03/25 10:34:43;;;;;;;25.95;13.35;;;;;;;14.18;27.33;100239.19;1844390;77;21101;-46
2022/03/25 10:37:12;;;;;;;26.90;11.33;;;;;;;14.23;27.21;100226.20;1845684;77;21574;-43
2022/03/25 10:39:40;;;;;;;29.32;11.43;;;;;;;14.37;27.16;100231.55;1854630;77;21065;-43
2022/03/25 10:42:08;;;;;;;36.40;11.10;;;;;;;14.32;27.20;100234.47;1846572;77;21019;-43
2022/03/25 10:44:41;;;;;;;25.02;11.95;;;;;;;14.34;27.17;100241.00;1844552;77;21475;-45
2022/03/25 10:47:21;;;;;;;28.42;11.43;;;;;;;14.27;27.07;100221.96;1840637;77;21393;-39
2022/03/25 10:49:49;;;;;;;29.52;12.37;;;;;;;15.09;27.42;100234.55;1831223;77;21582;-42
2022/03/25 10:52:30;;;;;;;26.95;12.68;;;;;;;16.38;26.55;100225.77;1844022;77;21161;-45
2022/03/25 10:55:22;;;;;;;36.85;14.87;;;;;;;17.48;26.66;100224.19;1854797;77;21467;-44
2022/03/25 10:57:58;;;;;;;26.87;13.65;;;;;;;18.22;24.13;100225.67;1848478;77;21031;-46
2022/03/25 11:00:26;;;;;;;29.03;14.03;;;;;;;19.02;25.23;100230.45;1851892;77;20991;-44
2022/03/25 11:02:53;;;;;;;23.67;12.78;;;;;;;19.90;22.90;100217.02;1852550;77;20982;-44
2022/03/25 11:05:19;;;;;;;25.08;11.15;;;;;;;20.58;20.55;100215.58;1842859;77;20957;-47
2022/03/25 11:07:47;;;;;;;23.83;13.10;;;;;;;21.06;21.10;100220.00;1841200;77;21054;-44
2022/03/25 11:10:17;;;;;;;37.15;14.10;;;;;;;22.01;21.72;100210.09;1798984;79;21061;-46
2022/03/25 11:12:49;;;;;;;25.90;13.65;;;;;;;22.31;18.83;100215.09;1791877;79;21053;-47
2022/03/25 11:15:18;;;;;;;27.45;14.83;;;;;;;23.12;20.35;100209.48;1807647;78;21004;-45
2022/03/25 11:17:45;;;;;;;21.12;13.35;;;;;;;23.70;18.00;100204.45;1767064;80;21055;-46
2022/03/25 11:20:13;;;;;;;29.32;12.78;;;;;;;24.06;17.22;100194.70;1759019;80;21004;-46
2022/03/25 11:23:06;;;;;;;18.50;10.60;;;;;;;24.40;18.23;100192.73;1784888;80;21401;-48
2022/03/25 11:25:40;;;;;;;20.92;9.40;;;;;;;25.03;18.28;100198.55;1770539;80;21046;-46
2022/03/25 11:28:11;;;;;;;13.62;9.25;;;;;;;25.53;16.43;100194.87;1802774;78;20959;-45
2022/03/25 11:30:37;;;;;;;19.02;10.85;;;;;;;26.19;17.36;100190.61;1807406;78;21009;-44
2022/03/25 11:33:07;;;;;;;17.27;12.23;;;;;;;26.00;15.04;100184.50;1813451;78;21036;-45
2022/03/25 11:35:39;;;;;;;28.35;14.53;;;;;;;26.55;16.31;100184.97;1807410;78;21009;-46
2022/03/25 11:38:14;;;;;;;19.73;13.60;;;;;;;27.09;16.04;100190.73;1816818;79;20985;-45
2022/03/25 11:40:45;;;;;;;21.42;13.85;;;;;;;27.31;15.35;100182.98;1798916;78;20996;-45
2022/03/25 11:43:21;;;;;;;24.63;13.22;;;;;;;27.21;15.36;100184.47;1790170;78;21021;-46
2022/03/25 11:46:06;;;;;;;23.45;13.35;;;;;;;27.63;14.08;100189.30;1809116;78;21501;-47
2022/03/25 11:48:38;;;;;;;25.52;13.35;;;;;;;27.73;14.96;100182.67;1796965;78;21020;-49
2022/03/25 11:51:28;;;;;;;21.37;14.93;;;;;;;28.42;14.68;100184.72;1816686;79;21004;-48
2022/03/25 11:53:54;;;;;;;23.50;15.25;;;;;;;28.53;14.09;100172.67;1809768;78;20996;-48
2022/03/25 11:56:20;;;;;;;36.53;14.87;;;;;;;29.31;13.90;100177.44;1799391;79;20997;-46
2022/03/25 11:59:00;;;;;;;34.13;14.65;;;;;;;29.21;12.95;100174.14;1814662;77;20960;-48
2022/03/25 12:01:27;;;;;;;31.37;15.18;;;;;;;29.17;13.48;100175.55;1842488;77;21437;-48
2022/03/25 12:03:58;;;;;;;;;;;;;;;29.16;13.60;100169.78;1829057;77;21009;-47
2022/03/25 12:06:29;;;;;;;27.70;14.23;;;;;;;29.65;12.63;100168.75;1836430;77;20124;-46
2022/03/25 12:09:06;;;;;;;21.60;14.68;;;;;;;28.50;12.88;100167.06;1841157;78;20975;-44
2022/03/25 12:12:00;;;;;;;22.02;14.63;;;;;;;29.17;12.88;100165.55;1841101;78;21014;-49
2022/03/25 12:14:33;;;;;;;25.75;14.38;;;;;;;28.59;12.88;100162.47;1834361;77;20995;-48
2022/03/25 12:17:12;;;;;;;28.12;14.40;;;;;;;28.89;13.23;100162.58;1829298;77;20998;-44
2022/03/25 12:19:51;;;;;;;23.65;14.87;;;;;;;29.09;12.22;100169.15;1841456;77;21602;-48
2022/03/25 12:22:28;;;;;;;21.73;14.53;;;;;;;29.37;12.72;100161.78;1829187;77;21034;-47
2022/03/25 12:25:04;;;;;;;25.57;14.78;;;;;;;29.99;12.59;100146.14;1839947;77;20979;-45
2022/03/25 12:27:29;;;;;;;;;;;;;;;30.67;11.37;100148.53;1842190;78;21487;-45
2022/03/25 12:29:55;;;;;;;;;;;;;;;29.85;11.48;100149.20;1844689;77;20127;-46
2022/03/25 12:32:25;;;;;;;24.52;13.60;;;;;;;28.70;12.20;100149.02;1837914;77;20167;-47
2022/03/25 12:35:05;;;;;;;22.75;14.87;;;;;;;29.60;12.39;100149.50;1829615;77;20960;-46
2022/03/25 12:37:48;;;;;;;22.35;14.47;;;;;;;29.98;12.21;100136.31;1840004;77;21062;-47
2022/03/25 12:40:30;;;;;;;24.07;13.75;;;;;;;29.58;12.03;100139.86;1839045;77;21026;-45
2022/03/25 12:43:05;;;;;;;20.10;13.62;;;;;;;30.21;11.42;100135.63;1840946;77;21026;-47
2022/03/25 12:45:49;;;;;;;26.27;14.78;;;;;;;30.71;11.77;100146.59;1839070;77;21090;-45
2022/03/25 12:48:23;;;;;;;25.88;14.98;;;;;;;30.29;11.88;100138.77;1840572;77;21054;-45
2022/03/25 12:50:56;;;;;;;31.07;14.80;;;;;;;29.94;11.96;100133.14;1840707;77;20987;-48
2022/03/25 12:53:26;;;;;;;18.37;13.45;;;;;;;29.85;11.97;100136.50;1838590;77;21076;-46
2022/03/25 12:55:53;;;;;;;23.85;14.43;;;;;;;29.78;12.40;100123.38;1846373;77;21019;-47
2022/03/25 12:58:24;;;;;;;25.68;14.45;;;;;;;28.98;12.23;100137.11;1843554;77;21023;-48
2022/03/25 13:00:54;;;;;;;23.62;14.15;;;;;;;29.27;12.47;100134.11;1836268;77;21054;-46
2022/03/25 13:03:29;;;;;;;83.72;17.45;;;;;;;29.62;12.54;100126.27;1842357;77;21070;-48
2022/03/25 13:05:55;;;;;;;23.90;13.70;;;;;;;30.22;12.08;100113.44;1848767;77;21034;-48
2022/03/25 13:08:23;;;;;;;18.43;13.33;;;;;;;30.22;12.29;100112.91;1835697;77;20994;-47
2022/03/25 13:10:59;;;;;;;20.02;13.22;;;;;;;30.89;11.91;100115.39;1848613;77;21034;-47
2022/03/25 13:13:31;;;;;;;28.47;12.73;;;;;;;31.12;11.68;100121.44;1848694;77;21109;-46
2022/03/25 13:16:03;;;;;;;46.35;14.53;;;;;;;30.26;12.00;100116.61;1836909;77;21243;-44
2022/03/25 13:18:35;;;;;;;22.73;12.10;;;;;;;29.40;12.04;100114.00;1848631;77;21029;-46
2022/03/25 13:21:01;;;;;;;21.25;12.18;;;;;;;30.03;12.21;100113.53;1849059;77;21582;-46
2022/03/25 13:23:28;;;;;;;20.93;13.00;;;;;;;29.80;12.55;100106.41;1850038;77;20979;-47
2022/03/25 13:25:57;;;;;;;24.10;12.80;;;;;;;29.69;12.33;100116.36;1844278;77;21304;-46
2022/03/25 13:28:29;;;;;;;21.65;12.07;;;;;;;29.41;12.60;100106.19;1846765;77;21053;-43
2022/03/25 13:30:59;;;;;;;15.65;10.95;;;;;;;30.24;12.03;100101.87;1841924;77;21484;-45
2022/03/25 13:33:32;;;;;;;15.38;10.68;;;;;;;29.75;12.15;100101.23;1846083;77;20984;-45
2022/03/25 13:36:07;;;;;;;20.40;11.48;;;;;;;30.12;12.04;100099.34;1852232;77;20990;-45
2022/03/25 13:38:48;;;;;;;16.35;11.15;;;;;;;30.30;11.60;100097.02;1832385;77;21552;-44
2022/03/25 13:41:19;;;;;;;22.27;10.98;;;;;;;29.43;12.27;100106.86;1843996;77;21002;-43
2022/03/25 13:44:04;;;;;;;21.60;12.90;;;;;;;29.23;12.12;100106.55;1842934;77;20998;-45
2022/03/25 13:46:30;;;;;;;21.15;12.75;;;;;;;29.12;12.50;100104.28;1843162;77;21057;-44
2022/03/25 13:49:04;;;;;;;23.20;12.90;;;;;;;28.85;12.54;100094.43;1848113;77;20955;-44
2022/03/25 13:51:36;;;;;;;18.80;12.40;;;;;;;28.68;12.68;100097.78;1836091;77;20979;-45
2022/03/25 13:54:07;;;;;;;20.60;12.60;;;;;;;28.34;12.38;100092.80;1841275;77;21573;-44
2022/03/25 13:56:49;;;;;;;27.48;12.73;;;;;;;27.53;12.86;100097.14;1821421;78;22213;-44
2022/03/25 13:59:40;;;;;;;23.05;12.23;;;;;;;27.07;13.04;100102.82;1818804;78;21039;-45
2022/03/25 14:02:02;;;;;;;20.75;13.30;;;;;;;26.01;13.73;100089.66;1817284;78;20992;-44
2022/03/25 14:04:31;;;;;;;24.35;14.15;;;;;;;24.82;14.44;100095.30;1819743;78;21008;-47
2022/03/25 14:07:00;;;;;;;22.65;13.08;;;;;;;23.90;15.24;100089.75;1817768;78;21083;-45
2022/03/25 14:09:37;;;;;;;23.47;13.58;;;;;;;23.05;15.88;100098.37;1819268;78;21010;-43
2022/03/25 14:12:17;;;;;;;21.50;12.82;;;;;;;22.31;17.00;100091.33;1820490;77;21058;-45
2022/03/25 14:14:58;;;;;;;20.70;11.55;;;;;;;21.85;17.58;100096.34;1820763;78;21026;-43
2022/03/25 14:17:33;;;;;;;21.97;11.53;;;;;;;21.21;17.86;100095.30;1813846;78;21002;-43
2022/03/25 14:20:19;;;;;;;26.15;12.93;;;;;;;20.73;18.11;100095.89;1813919;78;21451;-45
2022/03/25 14:22:55;;;;;;;29.85;12.33;;;;;;;20.41;17.92;100090.92;1816846;77;20985;-44
2022/03/25 14:25:23;;;;;;;20.45;12.07;;;;;;;20.03;18.17;100082.94;1803767;78;21032;-52
2022/03/25 14:27:59;;;;;;;24.63;12.10;;;;;;;19.88;18.20;100074.83;1774498;80;21026;-45
2022/03/25 14:30:24;;;;;;;24.98;11.43;;;;;;;19.38;19.37;100080.59;1771986;80;21043;-44
2022/03/25 14:32:51;;;;;;;21.97;10.93;;;;;;;19.15;19.10;100076.58;1764106;79;21210;-44
2022/03/25 14:35:18;;;;;;;19.85;10.53;;;;;;;18.56;19.77;100082.88;1790839;79;21049;-44
2022/03/25 14:37:46;;;;;;;28.92;10.23;;;;;;;18.46;19.36;100073.88;1774264;79;21064;-44
2022/03/25 14:40:12;;;;;;;18.23;10.20;;;;;;;18.45;19.47;100075.36;1808404;79;21021;-44
2022/03/25 14:42:38;;;;;;;20.60;11.40;;;;;;;18.23;19.86;100074.30;1813832;79;21026;-44
2022/03/25 14:45:06;;;;;;;22.52;9.68;;;;;;;18.11;20.05;100068.55;1805901;79;21532;-42
2022/03/25 14:47:32;;;;;;;23.27;10.72;;;;;;;18.02;20.04;100068.27;1812415;79;21046;-44
2022/03/25 14:49:58;;;;;;;20.57;10.95;;;;;;;17.90;20.52;100072.31;1811519;78;21053;-44
2022/03/25 14:52:24;;;;;;;24.77;11.28;;;;;;;17.76;20.80;100070.16;1818861;79;21057;-48
2022/03/25 14:54:50;;;;;;;28.10;10.57;;;;;;;17.82;20.36;100070.19;1807852;78;20994;-44
2022/03/25 14:57:18;;;;;;;20.35;10.45;;;;;;;17.71;21.03;100074.95;1803412;79;21041;-44
2022/03/25 14:59:44;;;;;;;34.83;10.68;;;;;;;17.60;20.46;100070.41;1807540;79;21029;-43
2022/03/25 15:02:11;;;;;;;20.72;9.08;;;;;;;17.49;20.74;100067.68;1813132;79;20995;-44
2022/03/25 15:04:41;;;;;;;20.72;9.25;;;;;;;17.15;20.93;100071.88;1812217;79;20986;-43
2022/03/25 15:07:08;;;;;;;22.37;9.38;;;;;;;17.09;20.72;100067.85;1800110;79;20989;-43
2022/03/25 15:09:34;;;;;;;17.02;8.85;;;;;;;17.06;20.80;100064.07;1810237;79;21485;-42
2022/03/25 15:12:00;;;;;;;24.65;9.90;;;;;;;16.90;21.00;100066.97;1818006;78;21058;-44
2022/03/25 15:14:27;;;;;;;18.42;8.75;;;;;;;16.93;20.86;100063.23;1788458;79;21494;-44
2022/03/25 15:16:53;;;;;;;18.67;9.35;;;;;;;16.89;20.58;100058.13;1811768;79;21485;-43
2022/03/25 15:19:21;;;;;;;22.52;9.10;;;;;;;16.82;20.88;100061.28;1813530;79;21070;-43
2022/03/25 15:21:47;;;;;;;;;;;;;;;16.63;20.89;100064.37;1808822;79;21018;-43
2022/03/25 15:24:14;;;;;;;24.80;8.95;;;;;;;16.47;21.35;100058.75;1811680;79;20536;-43
2022/03/25 15:26:41;;;;;;;25.48;8.93;;;;;;;16.61;20.77;100055.66;1807225;79;21069;-43
2022/03/25 15:29:07;;;;;;;20.02;9.00;;;;;;;16.58;20.74;100062.02;1812790;79;21010;-44
2022/03/25 15:34:29;;;;;;;18.92;9.03;;;;;;;16.38;20.37;100063.84;1801915;79;21290;-43
2022/03/25 15:36:55;;;;;;;;;;;;;;;16.24;20.20;100058.13;1802736;79;20997;-44
2022/03/25 15:39:59;;;;;;;27.07;9.35;;;;;;;16.04;20.27;100057.63;1811491;78;20120;-42
2022/03/25 15:41:50;;;;;;;29.92;9.68;;;;;;;16.05;20.11;100061.16;1797876;79;21045;-42
2022/03/25 15:44:15;;;;;;;19.60;9.05;;;;;;;15.90;20.08;100067.00;1803133;79;20986;-42
2022/03/25 15:46:41;;;;;;;21.17;9.08;;;;;;;15.75;19.76;100075.45;1818784;79;21543;-42
2022/03/25 15:49:07;;;;;;;22.60;9.40;;;;;;;15.68;19.66;100067.02;1809564;79;21040;-43
2022/03/25 15:51:33;;;;;;;17.25;8.13;;;;;;;15.69;19.53;100071.84;1814157;79;21522;-43
2022/03/25 15:53:59;;;;;;;16.40;8.30;;;;;;;15.52;19.64;100064.97;1812469;79;21555;-43
2022/03/25 15:56:24;;;;;;;24.85;9.90;;;;;;;15.53;19.70;100069.31;1810378;79;21031;-42
2022/03/25 15:58:50;;;;;;;20.82;9.48;;;;;;;15.41;19.81;100068.30;1811454;78;21080;-42
2022/03/25 16:01:16;;;;;;;24.10;9.68;;;;;;;15.34;20.05;100063.01;1799293;78;20978;-42
2022/03/25 16:03:42;;;;;;;23.10;10.72;;;;;;;15.25;20.23;100059.12;1805061;79;21080;-42
2022/03/25 16:06:07;;;;;;;25.72;10.60;;;;;;;15.28;20.27;100064.70;1821514;79;21042;-42
2022/03/25 16:08:35;;;;;;;31.05;12.85;;;;;;;15.08;20.47;100069.91;1814769;79;21066;-42
2022/03/25 16:11:01;;;;;;;25.97;12.37;;;;;;;15.09;20.89;100080.89;1798920;78;21037;-45
2022/03/25 16:13:30;;;;;;;28.77;12.10;;;;;;;14.77;21.75;100071.33;1810303;79;21029;-42
2022/03/25 16:15:55;;;;;;;25.40;12.47;;;;;;;14.66;21.78;100070.25;1817448;77;21014;-41
2022/03/25 16:18:21;;;;;;;41.30;11.90;;;;;;;14.58;22.30;100070.23;1822897;78;21042;-42
2022/03/25 16:20:47;;;;;;;22.45;11.83;;;;;;;14.62;21.84;100068.73;1805273;78;21521;-42
2022/03/25 16:23:13;;;;;;;30.68;12.30;;;;;;;14.52;22.41;100066.61;1805980;79;21607;-42
2022/03/25 16:25:39;;;;;;;21.00;10.58;;;;;;;14.40;22.25;100069.49;1821326;79;21530;-43
2022/03/25 16:28:06;;;;;;;35.95;11.73;;;;;;;14.36;22.73;100064.48;1816153;79;20978;-42
2022/03/25 16:30:37;;;;;;;34.45;12.28;;;;;;;14.34;22.59;100064.57;1800109;79;21012;-44
2022/03/25 16:35:30;;;;;;;36.25;12.60;;;;;;;14.36;22.79;100060.03;1801134;79;22760;-42
2022/03/25 16:37:56;;;;;;;30.57;12.80;;;;;;;14.27;23.05;100059.73;1760532;80;21594;-41
2022/03/25 16:40:22;;;;;;;25.37;12.68;;;;;;;14.20;23.44;100057.43;1761676;80;21011;-40
2022/03/25 16:42:50;;;;;;;49.58;13.00;;;;;;;14.16;23.55;100059.88;1761086;81;21065;-42
2022/03/25 16:45:17;;;;;;;60.90;15.13;;;;;;;14.14;23.79;100063.09;1761803;81;21011;-41
2022/03/25 16:47:48;;;;;;;35.40;12.95;;;;;;;14.04;24.08;100063.22;1761316;81;20996;-42
2022/03/25 16:50:17;;;;;;;63.23;14.65;;;;;;;13.96;24.53;100059.70;1760840;81;21034;-42
2022/03/25 16:52:45;;;;;;;29.75;12.43;;;;;;;13.96;24.85;100064.14;1760721;81;21530;-42
2022/03/25 16:55:13;;;;;;;;;;;;;;;13.84;26.08;100068.32;1764034;81;21034;-42
2022/03/25 16:57:39;;;;;;;36.85;12.95;;;;;;;13.82;27.58;100067.56;1761250;81;20108;-43
2022/03/25 17:00:09;;;;;;;29.65;12.82;;;;;;;13.71;27.80;100069.95;1761717;81;21039;-43
2022/03/25 17:02:34;;;;;;;33.60;14.05;;;;;;;13.71;26.29;100068.16;1761539;81;20991;-43
2022/03/25 17:05:01;;;;;;;36.93;13.28;;;;;;;13.65;26.68;100072.48;1761117;80;21019;-43
2022/03/25 17:07:27;;;;;;;30.27;13.93;;;;;;;13.59;27.08;100071.03;1760772;81;21736;-42
2022/03/25 17:09:52;;;;;;;33.70;14.73;;;;;;;13.57;27.34;100072.03;1760373;81;21019;-42
2022/03/25 17:12:19;;;;;;;49.90;15.05;;;;;;;13.53;27.85;100073.16;1761127;81;20988;-44
2022/03/25 17:14:45;;;;;;;28.77;14.07;;;;;;;13.46;27.73;100073.09;1777368;80;21026;-43
2022/03/25 17:17:11;;;;;;;34.60;13.98;;;;;;;13.41;27.88;100070.25;1787076;80;21507;-43
2022/03/25 17:19:39;;;;;;;70.65;14.43;;;;;;;13.36;28.22;100070.96;1787764;80;21038;-44
2022/03/25 17:22:07;;;;;;;36.98;15.20;;;;;;;13.33;28.09;100072.44;1787985;80;20986;-45
2022/03/25 17:24:35;;;;;;;40.95;15.03;;;;;;;13.22;28.70;100076.10;1783011;80;21602;-42
2022/03/25 17:27:01;;;;;;;37.42;14.95;;;;;;;13.15;29.26;100079.56;1759830;81;21094;-41
2022/03/25 17:29:27;;;;;;;39.58;15.75;;;;;;;13.08;29.27;100083.91;1758656;81;21106;-43
2022/03/25 17:31:53;;;;;;;29.87;15.60;;;;;;;13.06;29.24;100082.66;1758648;81;21039;-42
2022/03/25 17:34:19;;;;;;;45.50;15.98;;;;;;;12.99;29.72;100083.48;1755250;81;21142;-42
2022/03/25 17:36:46;;;;;;;36.50;16.95;;;;;;;12.94;29.71;100082.86;1751236;82;20998;-42
2022/03/25 17:39:12;;;;;;;33.58;15.43;;;;;;;12.93;29.95;100083.78;1752758;82;21038;-41
2022/03/25 17:41:42;;;;;;;33.53;16.70;;;;;;;12.90;29.94;100088.36;1752706;81;21850;-41
2022/03/25 17:44:06;;;;;;;46.98;16.73;;;;;;;12.84;30.21;100095.70;1751643;81;21026;-41
2022/03/25 17:46:32;;;;;;;34.55;16.95;;;;;;;12.85;30.34;100097.86;1751024;82;21062;-42
2022/03/25 17:48:58;;;;;;;49.18;16.85;;;;;;;12.71;30.96;100097.23;1750733;82;21027;-42
2022/03/25 17:51:24;;;;;;;40.98;18.45;;;;;;;12.70;31.07;100095.99;1750645;82;21062;-41
2022/03/25 17:53:50;;;;;;;43.85;17.77;;;;;;;12.70;31.08;100094.67;1750813;82;21051;-42
2022/03/25 17:56:16;;;;;;;49.80;18.25;;;;;;;12.67;31.02;100095.22;1750632;82;21639;-42
2022/03/25 17:58:42;;;;;;;42.88;19.67;;;;;;;12.61;31.72;100096.86;1751529;82;21896;-42
2022/03/25 18:01:08;;;;;;;51.30;19.85;;;;;;;12.60;31.54;100100.90;1751888;82;21496;-42
2022/03/25 18:03:35;;;;;;;46.33;20.25;;;;;;;12.59;31.71;100097.89;1751425;82;21567;-49
2022/03/25 18:06:01;;;;;;;47.50;21.17;;;;;;;12.58;31.81;100099.66;1750662;81;21055;-42
2022/03/25 18:08:27;;;;;;;44.27;20.25;;;;;;;12.53;32.04;100105.62;1750877;82;21042;-42
2022/03/25 18:10:54;;;;;;;50.88;20.88;;;;;;;12.45;32.35;100105.17;1751312;81;21028;-43
2022/03/25 18:13:20;;;;;;;66.10;26.77;;;;;;;12.38;32.13;100101.97;1752152;81;20987;-43
2022/03/25 18:15:46;;;;;;;47.80;21.40;;;;;;;12.31;32.96;100097.93;1752018;81;21515;-42
2022/03/25 18:18:14;;;;;;;43.78;21.12;;;;;;;12.25;33.10;100101.73;1751998;81;20983;-42
2022/03/25 18:20:42;;;;;;;42.95;20.52;;;;;;;12.20;33.41;100101.09;1752112;82;20991;-42
2022/03/25 18:23:08;;;;;;;52.33;22.67;;;;;;;12.16;32.87;100096.91;1751996;81;21032;-40
2022/03/25 18:25:34;;;;;;;56.85;22.00;;;;;;;12.09;33.61;100098.14;1751996;82;21033;-40
2022/03/25 18:28:00;;;;;;;43.73;22.77;;;;;;;12.09;33.11;100100.77;1752011;82;21446;-41
2022/03/25 18:30:27;;;;;;;47.27;22.50;;;;;;;12.04;33.29;100106.72;1752001;82;20972;-41
2022/03/25 18:32:55;;;;;;;45.60;22.65;;;;;;;11.95;33.68;100109.80;1752170;81;21537;-41
2022/03/25 18:35:20;;;;;;;52.13;25.72;;;;;;;11.90;33.54;100102.98;1747865;82;20980;-41
2022/03/25 18:37:46;;;;;;;58.87;27.05;;;;;;;11.86;34.01;100111.06;1746420;82;21023;-41
2022/03/25 18:40:13;;;;;;;58.02;27.52;;;;;;;11.81;33.98;100107.81;1746442;82;21006;-41
2022/03/25 18:42:38;;;;;;;61.23;27.45;;;;;;;11.75;34.66;100108.96;1746386;82;21042;-42
2022/03/25 18:45:06;;;;;;;56.70;28.05;;;;;;;11.73;34.37;100113.42;1746384;82;21077;-42
2022/03/25 18:47:32;;;;;;;56.40;27.40;;;;;;;11.67;35.12;100117.20;1746451;82;21082;-40
2022/03/25 18:49:58;;;;;;;62.08;27.58;;;;;;;11.65;34.96;100111.63;1746398;82;21044;-41
2022/03/25 18:52:24;;;;;;;55.17;26.87;;;;;;;11.60;35.09;100111.83;1746609;82;20996;-41
2022/03/25 18:54:54;;;;;;;66.40;29.18;;;;;;;11.58;35.12;100110.20;1746548;82;20975;-43
2022/03/25 18:57:19;;;;;;;63.58;25.77;;;;;;;11.56;35.30;100111.58;1746126;82;21542;-41
2022/03/25 18:59:44;;;;;;;55.80;24.35;;;;;;;11.55;35.05;100107.26;1746397;81;20995;-43
2022/03/25 19:02:12;;;;;;;57.30;24.50;;;;;;;11.52;35.33;100109.55;1746270;82;21014;-42
2022/03/25 19:04:41;;;;;;;;;;;;;;;11.49;35.64;100111.00;1748780;82;21062;-42
2022/03/25 19:07:06;;;;;;;51.65;22.62;;;;;;;11.42;37.83;100113.52;1745128;81;20182;-41
2022/03/25 19:09:31;;;;;;;56.83;24.27;;;;;;;11.40;35.96;100112.74;1745222;82;21042;-42
2022/03/25 19:11:57;;;;;;;52.67;23.50;;;;;;;11.37;35.90;100120.80;1744931;82;21543;-43
2022/03/25 19:14:24;;;;;;;47.85;23.98;;;;;;;11.31;36.28;100121.06;1745022;82;21559;-41
2022/03/25 19:16:50;;;;;;;46.23;22.93;;;;;;;11.25;36.60;100116.92;1746396;82;21464;-41
2022/03/25 19:19:15;;;;;;;59.15;24.55;;;;;;;11.20;36.88;100123.33;1746151;82;20998;-42
2022/03/25 19:21:41;;;;;;;48.83;24.20;;;;;;;11.16;36.88;100125.23;1745920;82;20995;-43
2022/03/25 19:24:08;;;;;;;57.05;23.57;;;;;;;11.12;37.00;100120.57;1745982;82;21031;-42
2022/03/25 19:26:34;;;;;;;46.45;24.10;;;;;;;11.08;37.15;100119.47;1745927;82;21002;-41
2022/03/25 19:29:00;;;;;;;53.13;24.82;;;;;;;11.07;37.26;100117.75;1745936;82;20990;-41
2022/03/25 19:31:27;;;;;;;46.68;24.90;;;;;;;11.02;37.28;100123.20;1746245;82;20972;-41
2022/03/25 19:33:54;;;;;;;56.92;24.87;;;;;;;11.01;36.84;100128.09;1746497;82;20983;-42
2022/03/25 19:36:21;;;;;;;55.35;23.35;;;;;;;10.92;37.61;100131.13;1746567;82;20999;-42
2022/03/25 19:38:46;;;;;;;55.50;25.35;;;;;;;10.88;37.61;100125.61;1746576;82;21050;-42
2022/03/25 19:41:12;;;;;;;47.25;23.95;;;;;;;10.85;37.69;100130.52;1746331;82;20968;-42
2022/03/25 19:43:39;;;;;;;58.08;25.57;;;;;;;10.81;37.65;100130.27;1746423;82;21055;-42
2022/03/25 19:46:06;;;;;;;58.98;26.40;;;;;;;10.78;37.61;100128.23;1746525;82;20960;-41
2022/03/25 19:48:34;;;;;;;75.10;29.42;;;;;;;10.74;37.83;100132.77;1746433;82;21819;-42
2022/03/25 19:51:00;;;;;;;;;;;;;;;10.74;37.77;100122.24;1749071;82;21419;-42
2022/03/25 19:53:26;;;;;;;64.42;30.00;;;;;;;10.66;39.47;100122.58;1746354;81;20170;-42
2022/03/25 19:55:52;;;;;;;60.58;30.80;;;;;;;10.61;38.04;100121.91;1746346;82;20995;-41
2022/03/25 19:58:18;;;;;;;73.15;33.15;;;;;;;10.58;38.14;100119.40;1746384;81;20998;-41
2022/03/25 20:00:45;;;;;;;65.95;33.35;;;;;;;10.55;38.31;100128.72;1746524;82;21030;-42
2022/03/25 20:03:13;;;;;;;77.03;33.83;;;;;;;10.51;38.31;100129.78;1746607;82;20999;-42
2022/03/25 20:05:39;;;;;;;68.55;34.13;;;;;;;10.43;38.84;100135.36;1746360;82;21441;-42
2022/03/25 20:08:06;;;;;;;76.42;35.78;;;;;;;10.40;38.74;100132.84;1746336;82;21112;-41
2022/03/25 20:10:33;;;;;;;71.10;34.65;;;;;;;10.37;38.61;100134.31;1746409;82;21046;-44
2022/03/25 20:13:00;;;;;;;78.07;37.08;;;;;;;10.32;39.07;100129.23;1746535;82;21913;-42
2022/03/25 20:15:25;;;;;;;74.40;35.07;;;;;;;10.28;39.13;100124.98;1746593;82;20992;-42
2022/03/25 20:17:51;;;;;;;80.72;37.28;;;;;;;10.29;39.04;100131.09;1746276;82;21031;-42
2022/03/25 20:20:17;;;;;;;75.05;36.88;;;;;;;10.25;39.29;100134.77;1746389;81;21007;-43
2022/03/25 20:22:43;;;;;;;85.40;38.85;;;;;;;10.20;39.37;100134.94;1746378;82;20999;-47
2022/03/25 20:25:12;;;;;;;89.83;39.48;;;;;;;10.17;39.30;100141.19;1746325;82;21488;-41
2022/03/25 20:27:38;;;;;;;80.25;37.73;;;;;;;10.17;39.59;100137.72;1746003;82;20956;-43
2022/03/25 20:30:06;;;;;;;86.67;38.13;;;;;;;10.16;39.52;100146.03;1746579;82;20998;-41
2022/03/25 20:32:31;;;;;;;85.65;38.70;;;;;;;10.11;39.76;100139.25;1746516;82;21003;-42
2022/03/25 20:34:57;;;;;;;80.10;38.25;;;;;;;10.09;39.70;100141.09;1746239;82;20996;-42
2022/03/25 20:37:23;;;;;;;75.55;37.13;;;;;;;10.09;39.85;100144.56;1746403;81;21039;-43
2022/03/25 20:39:49;;;;;;;83.03;38.00;;;;;;;10.04;39.71;100145.23;1746325;81;21022;-41
2022/03/25 20:42:15;;;;;;;69.72;34.78;;;;;;;10.00;40.18;100142.30;1746410;82;20984;-40
2022/03/25 20:44:42;;;;;;;79.75;37.58;;;;;;;9.95;40.32;100138.56;1746456;82;20960;-42
2022/03/25 20:47:09;;;;;;;89.55;40.70;;;;;;;9.92;40.17;100143.08;1746482;82;20988;-40
2022/03/25 20:49:40;;;;;;;77.78;37.73;;;;;;;9.87;40.65;100139.30;1746640;82;21030;-41
2022/03/25 20:52:11;;;;;;;79.55;38.08;;;;;;;9.85;40.43;100140.29;1746358;81;21076;-41
2022/03/25 20:54:39;;;;;;;67.62;34.92;;;;;;;9.85;40.16;100135.03;1746355;82;21008;-41
2022/03/25 20:57:06;;;;;;;75.90;35.20;;;;;;;9.80;40.25;100130.83;1746413;82;21035;-40
2022/03/25 20:59:33;;;;;;;71.23;34.73;;;;;;;9.74;40.17;100123.16;1746653;82;21167;-40
2022/03/25 21:01:59;;;;;;;69.62;34.60;;;;;;;9.70;40.38;100127.30;1746590;82;21003;-41
2022/03/25 21:04:25;;;;;;;77.42;34.33;;;;;;;9.69;40.80;100124.25;1746368;82;20987;-41
2022/03/25 21:06:52;;;;;;;70.67;34.38;;;;;;;9.69;40.68;100122.94;1746347;82;21513;-41
2022/03/25 21:09:18;;;;;;;80.57;34.70;;;;;;;9.67;40.96;100116.90;1746684;82;20964;-40
2022/03/25 21:11:44;;;;;;;72.37;33.85;;;;;;;9.67;40.62;100118.20;1746342;82;21043;-41
2022/03/25 21:14:09;;;;;;;76.57;32.85;;;;;;;9.60;41.10;100112.33;1746312;82;20991;-41
2022/03/25 21:16:36;;;;;;;73.20;34.53;;;;;;;9.58;40.97;100108.44;1746339;82;21026;-42
2022/03/25 21:19:02;;;;;;;78.42;31.87;;;;;;;9.55;40.94;100111.20;1746118;82;21039;-41
2022/03/25 21:21:28;;;;;;;65.45;31.48;;;;;;;9.50;41.44;100100.48;1745394;81;21771;-41
2022/03/25 21:23:55;;;;;;;61.42;30.27;;;;;;;9.46;41.40;100103.68;1745636;81;21030;-41
2022/03/25 21:26:21;;;;;;;55.55;28.70;;;;;;;9.45;41.41;100101.95;1745376;82;21035;-42
2022/03/25 21:28:47;;;;;;;59.00;30.17;;;;;;;9.44;41.36;100102.00;1745389;82;21027;-41
2022/03/25 21:31:13;;;;;;;66.00;29.42;;;;;;;9.40;41.50;100104.77;1746200;82;21039;-40
2022/03/25 21:33:39;;;;;;;63.60;28.25;;;;;;;9.39;41.72;100104.82;1746481;82;20956;-40
2022/03/25 21:36:05;;;;;;;61.70;29.07;;;;;;;9.38;41.51;100104.41;1751854;80;21011;-40
2022/03/25 21:38:31;;;;;;;68.25;30.30;;;;;;;9.36;41.59;100106.23;1754706;82;20964;-40
2022/03/25 21:40:58;;;;;;;63.92;29.67;;;;;;;9.33;41.96;100110.28;1754776;81;20998;-41
2022/03/25 21:43:24;;;;;;;62.97;31.77;;;;;;;9.30;41.79;100107.33;1755035;82;21081;-42
2022/03/25 21:45:51;;;;;;;59.33;29.42;;;;;;;9.19;42.63;100105.09;1754779;80;21030;-41
2022/03/25 21:48:18;;;;;;;73.55;31.87;;;;;;;9.17;42.37;100102.98;1754983;80;21917;-41
2022/03/25 21:50:44;;;;;;;68.50;29.87;;;;;;;9.15;42.91;100105.24;1754815;81;21030;-41